createdAt,value
2023-03-08T00:00:30.740Z,0
2023-03-08T00:01:30.503Z,0
2023-03-08T00:02:30.937Z,0
2023-03-08T00:03:30.758Z,0
2023-03-08T00:04:31.384Z,0
2023-03-08T00:05:31.051Z,0
2023-03-08T00:06:30.718Z,0
2023-03-08T00:07:30.582Z,0
2023-03-08T00:08:31.040Z,0
2023-03-08T00:09:30.814Z,0
2023-03-08T00:10:30.528Z,0
2023-03-08T00:11:30.506Z,0
2023-03-08T00:12:30.484Z,0
2023-03-08T00:13:30.206Z,0
2023-03-08T00:14:30.448Z,0
2023-03-08T00:15:30.721Z,0
2023-03-08T00:16:30.867Z,0
2023-03-08T00:17:30.634Z,0
2023-03-08T00:18:30.622Z,0
2023-03-08T00:19:30.613Z,0
2023-03-08T00:20:30.455Z,0
2023-03-08T00:21:30.703Z,0
2023-03-08T00:22:30.549Z,0
2023-03-08T00:23:30.551Z,0
2023-03-08T00:24:30.546Z,0
2023-03-08T00:25:30.246Z,0
2023-03-08T00:26:30.218Z,0
2023-03-08T00:27:30.452Z,0
2023-03-08T00:28:30.429Z,0
2023-03-08T00:29:30.329Z,0
2023-03-08T00:30:29.874Z,0
2023-03-08T00:31:30.462Z,0
2023-03-08T00:32:30.305Z,0
2023-03-08T00:33:30.365Z,0
2023-03-08T00:34:30.076Z,0
2023-03-08T00:35:30.194Z,0
2023-03-08T00:36:30.046Z,0
2023-03-08T00:37:30.490Z,0
2023-03-08T00:38:29.758Z,0
2023-03-08T00:39:30.222Z,0
2023-03-08T00:40:30.220Z,0
2023-03-08T00:41:30.188Z,0
2023-03-08T00:42:30.208Z,0
2023-03-08T00:43:30.156Z,0
2023-03-08T00:44:30.138Z,0
2023-03-08T00:45:29.862Z,0
2023-03-08T00:46:30.335Z,0
2023-03-08T00:47:30.089Z,0
2023-03-08T00:48:30.082Z,0
2023-03-08T00:49:29.505Z,0
2023-03-08T00:50:29.751Z,0
2023-03-08T00:51:29.476Z,0
2023-03-08T00:52:29.955Z,0
2023-03-08T00:53:30.089Z,0
2023-03-08T00:54:29.662Z,0
2023-03-08T00:55:29.391Z,0
2023-03-08T00:56:29.879Z,0
2023-03-08T00:57:29.861Z,0
2023-03-08T00:58:30.226Z,0
2023-03-08T00:59:30.444Z,0
2023-03-08T01:00:30.189Z,0
2023-03-08T01:01:30.407Z,0
2023-03-08T01:02:30.404Z,0
2023-03-08T01:03:30.150Z,0
2023-03-08T01:04:30.347Z,0
2023-03-08T01:05:30.578Z,0
2023-03-08T01:06:30.568Z,0
2023-03-08T01:07:30.524Z,0
2023-03-08T01:08:30.543Z,0
2023-03-08T01:09:30.606Z,0
2023-03-08T01:10:30.477Z,0
2023-03-08T01:11:30.480Z,0
2023-03-08T01:12:30.181Z,0
2023-03-08T01:13:30.439Z,0
2023-03-08T01:14:30.417Z,0
2023-03-08T01:15:30.371Z,0
2023-03-08T01:16:30.392Z,0
2023-03-08T01:17:30.087Z,0
2023-03-08T01:18:30.096Z,0
2023-03-08T01:19:30.300Z,0
2023-03-08T01:20:30.289Z,0
2023-03-08T01:21:29.770Z,0
2023-03-08T01:22:30.248Z,0
2023-03-08T01:23:29.986Z,0
2023-03-08T01:24:29.703Z,0
2023-03-08T01:25:30.280Z,0
2023-03-08T01:26:29.651Z,0
2023-03-08T01:27:29.630Z,0
2023-03-08T01:28:29.631Z,0
2023-03-08T01:29:30.149Z,0
2023-03-08T01:30:30.126Z,0
2023-03-08T01:31:30.118Z,0
2023-03-08T01:32:29.962Z,0
2023-03-08T01:34:01.850Z,0
2023-03-08T01:34:29.747Z,0
2023-03-08T01:35:30.002Z,0
2023-03-08T01:36:30.046Z,0
2023-03-08T01:37:29.690Z,0
2023-03-08T01:38:29.430Z,0
2023-03-08T01:39:29.921Z,0
2023-03-08T01:40:29.934Z,0
2023-03-08T02:41:07.801Z,0
2023-03-08T02:41:38.469Z,0
2023-03-08T02:42:38.391Z,0
2023-03-08T02:43:38.121Z,0
2023-03-08T02:44:38.352Z,0
2023-03-08T02:45:38.096Z,0
2023-03-08T02:46:38.070Z,0
2023-03-08T02:47:38.054Z,0
2023-03-08T02:48:38.256Z,0
2023-03-08T02:49:38.006Z,0
2023-03-08T02:50:37.749Z,0
2023-03-08T02:51:37.685Z,0
2023-03-08T02:52:38.176Z,0
2023-03-08T02:53:38.158Z,0
2023-03-08T02:54:37.889Z,0
2023-03-08T02:55:37.601Z,0
2023-03-08T02:56:38.161Z,0
2023-03-08T02:57:37.873Z,0
2023-03-08T02:58:38.040Z,0
2023-03-08T02:59:38.139Z,0
2023-03-08T03:00:38.026Z,0
2023-03-08T03:01:37.850Z,0
2023-03-08T03:02:37.971Z,0
2023-03-08T03:03:37.687Z,0
2023-03-08T03:04:37.692Z,0
2023-03-08T03:05:37.663Z,0
2023-03-08T03:06:37.834Z,0
2023-03-08T03:07:37.348Z,0
2023-03-08T03:08:37.613Z,0
2023-03-08T03:09:37.053Z,0
2023-03-08T03:11:37.545Z,0
2023-03-08T03:12:37.869Z,0
2023-03-08T03:13:37.842Z,0
2023-03-08T03:14:37.472Z,0
2023-03-08T03:15:37.078Z,0
2023-03-08T03:16:37.424Z,0
2023-03-08T03:17:37.656Z,0
2023-03-08T03:18:37.393Z,0
2023-03-08T03:19:37.624Z,0
2023-03-08T03:20:37.367Z,0
2023-03-08T03:21:37.571Z,0
2023-03-08T03:22:37.307Z,0
2023-03-08T03:23:37.541Z,0
2023-03-08T03:24:39.780Z,0
2023-03-08T03:25:37.500Z,0
2023-03-08T03:26:37.243Z,0
2023-03-08T03:27:37.206Z,0
2023-03-08T03:28:37.503Z,0
2023-03-08T03:29:37.487Z,0
2023-03-08T03:30:37.144Z,0
2023-03-08T03:31:37.407Z,0
2023-03-08T03:32:37.725Z,0
2023-03-08T03:33:37.090Z,0
2023-03-08T03:34:37.053Z,0
2023-03-08T03:35:37.576Z,0
2023-03-08T03:36:37.276Z,0
2023-03-08T03:37:37.297Z,0
2023-03-08T03:38:36.724Z,0
2023-03-08T03:39:37.281Z,0
2023-03-08T03:40:36.965Z,0
2023-03-08T03:41:36.677Z,0
2023-03-08T03:42:37.163Z,0
2023-03-08T03:43:36.643Z,0
2023-03-08T03:44:37.269Z,0
2023-03-08T03:45:36.902Z,0
2023-03-08T03:46:36.985Z,0
2023-03-08T03:47:36.798Z,0
2023-03-08T03:48:37.037Z,0
2023-03-08T03:49:37.050Z,0
2023-03-08T03:50:36.548Z,0
2023-03-08T03:51:36.547Z,0
2023-03-08T03:52:36.977Z,0
2023-03-08T03:53:36.980Z,0
2023-03-08T03:54:36.977Z,0
2023-03-08T03:55:36.663Z,0
2023-03-08T03:56:36.892Z,0
2023-03-08T03:57:36.624Z,0
2023-03-08T03:58:36.878Z,0
2023-03-08T03:59:36.576Z,0
2023-03-08T04:00:36.871Z,0
2023-03-08T04:01:37.005Z,0
2023-03-08T04:02:36.600Z,0
2023-03-08T04:03:36.618Z,0
2023-03-08T04:04:36.245Z,0
2023-03-08T04:05:36.030Z,0
2023-03-08T04:06:36.700Z,0
2023-03-08T04:07:36.193Z,0
2023-03-08T04:08:36.398Z,0
2023-03-08T04:09:36.388Z,0
2023-03-08T04:10:36.607Z,0
2023-03-08T04:11:36.135Z,0
2023-03-08T04:12:36.325Z,0
2023-03-08T04:13:36.308Z,0
2023-03-08T04:14:36.531Z,0
2023-03-08T04:15:36.252Z,0
2023-03-08T04:16:37.073Z,0
2023-03-08T04:17:36.600Z,0
2023-03-08T04:18:36.633Z,0
2023-03-08T04:19:35.929Z,0
2023-03-08T04:20:36.442Z,0
2023-03-08T04:21:36.426Z,0
2023-03-08T04:22:36.379Z,0
2023-03-08T04:23:35.855Z,0
2023-03-08T04:24:36.479Z,0
2023-03-08T04:25:36.094Z,0
2023-03-08T04:26:35.883Z,0
2023-03-08T04:27:36.022Z,0
2023-03-08T04:28:35.788Z,0
2023-03-08T04:46:11.640Z,0
2023-03-08T04:47:11.225Z,0
2023-03-08T04:48:11.150Z,0
2023-03-08T04:49:11.148Z,0
2023-03-08T04:50:10.851Z,0
2023-03-08T04:51:11.347Z,0
2023-03-08T04:52:11.300Z,0
2023-03-08T04:53:11.305Z,0
2023-03-08T04:54:11.267Z,0
2023-03-08T04:55:11.000Z,0
2023-03-08T04:56:10.967Z,0
2023-03-08T04:57:10.971Z,0
2023-03-08T04:58:10.943Z,0
2023-03-08T04:59:10.925Z,0
2023-03-08T05:00:10.672Z,0
2023-03-08T05:01:11.127Z,0
2023-03-08T05:02:11.471Z,0
2023-03-08T05:03:10.605Z,0
2023-03-08T05:04:10.808Z,0
2023-03-08T05:05:10.788Z,0
2023-03-08T05:06:10.531Z,0
2023-03-08T05:07:11.011Z,0
2023-03-08T05:08:10.986Z,0
2023-03-08T05:09:10.956Z,0
2023-03-08T05:10:10.449Z,0
2023-03-08T05:11:10.675Z,0
2023-03-08T05:12:10.398Z,0
2023-03-08T05:13:10.876Z,0
2023-03-08T05:14:10.875Z,0
2023-03-08T05:15:10.592Z,0
2023-03-08T05:16:11.137Z,0
2023-03-08T05:17:10.796Z,0
2023-03-08T05:18:10.890Z,0
2023-03-08T05:19:10.299Z,4
2023-03-08T05:20:10.493Z,0
2023-03-08T05:21:11.496Z,0
2023-03-08T05:22:11.494Z,4
2023-03-08T05:23:11.473Z,0
2023-03-08T05:24:11.203Z,4
2023-03-08T05:25:11.416Z,8
2023-03-08T05:26:11.156Z,8
2023-03-08T05:27:11.413Z,8
2023-03-08T05:28:11.113Z,8
2023-03-08T05:29:10.850Z,12
2023-03-08T05:30:10.809Z,20
2023-03-08T05:31:11.126Z,20
2023-03-08T05:32:13.190Z,24
2023-03-08T05:33:10.742Z,28
2023-03-08T05:34:11.417Z,32
2023-03-08T05:35:11.223Z,36
2023-03-08T05:36:11.390Z,44
2023-03-08T05:37:10.432Z,52
2023-03-08T05:38:10.900Z,56
2023-03-08T05:39:10.625Z,64
2023-03-08T05:40:10.989Z,76
2023-03-08T05:41:10.851Z,80
2023-03-08T05:42:10.311Z,88
2023-03-08T05:43:11.084Z,92
2023-03-08T05:44:11.050Z,100
2023-03-08T05:45:10.764Z,108
2023-03-08T05:46:11.589Z,132
2023-03-08T05:47:10.742Z,152
2023-03-08T05:48:10.987Z,176
2023-03-08T05:49:10.957Z,196
2023-03-08T05:50:11.095Z,204
2023-03-08T05:51:10.639Z,204
2023-03-08T05:52:10.633Z,212
2023-03-08T05:53:10.623Z,212
2023-03-08T05:54:10.638Z,216
2023-03-08T05:55:10.573Z,228
2023-03-08T05:56:10.296Z,236
2023-03-08T05:57:10.820Z,248
2023-03-08T05:58:10.275Z,260
2023-03-08T05:59:10.771Z,284
2023-03-08T06:00:10.525Z,316
2023-03-08T06:01:10.462Z,352
2023-03-08T06:02:10.635Z,360
2023-03-08T06:03:10.871Z,404
2023-03-08T06:04:10.739Z,400
2023-03-08T06:05:10.374Z,364
2023-03-08T06:06:10.713Z,344
2023-03-08T06:07:10.616Z,320
2023-03-08T06:08:10.572Z,316
2023-03-08T06:09:10.575Z,316
2023-03-08T06:10:10.282Z,356
2023-03-08T06:11:10.311Z,412
2023-03-08T06:12:10.507Z,412
2023-03-08T06:13:09.989Z,404
2023-03-08T06:14:12.161Z,468
2023-03-08T06:15:10.207Z,568
2023-03-08T06:16:10.420Z,628
2023-03-08T06:17:09.940Z,604
2023-03-08T06:18:10.414Z,600
2023-03-08T06:19:10.135Z,640
2023-03-08T06:20:10.170Z,720
2023-03-08T06:21:10.329Z,832
2023-03-08T06:22:10.426Z,836
2023-03-08T06:23:10.280Z,888
2023-03-08T06:24:10.059Z,944
2023-03-08T06:25:10.261Z,988
2023-03-08T06:26:10.255Z,1084
2023-03-08T06:27:09.949Z,1112
2023-03-08T06:28:09.940Z,1156
2023-03-08T06:29:09.916Z,1256
2023-03-08T06:30:09.927Z,1424
2023-03-08T06:31:10.484Z,1676
2023-03-08T06:32:09.800Z,1880
2023-03-08T06:33:09.845Z,1984
2023-03-08T06:34:10.105Z,2052
2023-03-08T06:35:10.784Z,1996
2023-03-08T06:36:10.465Z,1940
2023-03-08T06:37:10.675Z,1912
2023-03-08T06:38:10.777Z,1768
2023-03-08T06:39:10.392Z,1740
2023-03-08T06:40:10.677Z,1836
2023-03-08T06:41:10.599Z,1932
2023-03-08T06:42:10.337Z,2116
2023-03-08T06:43:10.559Z,2304
2023-03-08T06:44:10.567Z,2580
2023-03-08T06:45:10.587Z,2832
2023-03-08T06:46:10.937Z,2936
2023-03-08T06:47:10.246Z,3004
2023-03-08T06:48:09.955Z,3132
2023-03-08T06:49:10.473Z,3204
2023-03-08T06:50:10.513Z,3216
2023-03-08T06:51:10.416Z,3216
2023-03-08T06:52:10.139Z,3188
2023-03-08T06:53:10.389Z,3172
2023-03-08T06:54:10.467Z,3180
2023-03-08T06:55:09.866Z,3184
2023-03-08T06:56:10.132Z,3148
2023-03-08T06:57:12.880Z,3100
2023-03-08T06:58:10.054Z,3040
2023-03-08T06:59:10.254Z,2976
2023-03-08T07:00:10.292Z,2884
2023-03-08T07:01:10.243Z,2872
2023-03-08T07:02:10.216Z,2788
2023-03-08T07:03:09.705Z,2760
2023-03-08T07:04:09.916Z,2920
2023-03-08T07:05:09.679Z,3152
2023-03-08T07:06:10.195Z,3348
2023-03-08T07:07:10.094Z,3536
2023-03-08T07:08:09.847Z,3784
2023-03-08T07:09:09.578Z,4064
2023-03-08T07:10:10.203Z,4204
2023-03-08T07:11:09.874Z,4160
2023-03-08T07:12:11.218Z,4036
2023-03-08T07:13:09.764Z,3928
2023-03-08T07:14:09.753Z,4008
2023-03-08T07:15:09.959Z,4128
2023-03-08T07:16:09.769Z,4188
2023-03-08T07:17:09.702Z,4268
2023-03-08T07:18:09.402Z,4380
2023-03-08T07:19:09.637Z,4420
2023-03-08T07:20:09.393Z,4472
2023-03-08T07:21:09.848Z,4524
2023-03-08T07:22:09.858Z,4500
2023-03-08T07:23:09.612Z,4460
2023-03-08T07:24:09.560Z,4440
2023-03-08T07:25:09.684Z,4400
2023-03-08T07:26:10.024Z,4388
2023-03-08T07:27:09.519Z,4420
2023-03-08T07:28:09.496Z,4420
2023-03-08T07:29:09.482Z,4440
2023-03-08T07:30:09.177Z,4536
2023-03-08T07:31:09.420Z,4844
2023-03-08T07:32:09.966Z,5208
2023-03-08T07:33:09.616Z,5464
2023-03-08T07:34:09.352Z,5464
2023-03-08T07:35:09.367Z,5392
2023-03-08T07:36:09.832Z,5408
2023-03-08T07:37:09.293Z,5508
2023-03-08T07:38:09.311Z,5884
2023-03-08T07:39:09.273Z,6352
2023-03-08T07:40:09.253Z,6416
2023-03-08T07:41:09.478Z,6520
2023-03-08T07:42:09.928Z,7032
2023-03-08T07:43:09.692Z,7348
2023-03-08T07:44:09.604Z,7308
2023-03-08T07:45:09.790Z,6988
2023-03-08T07:46:09.524Z,6720
2023-03-08T07:47:09.628Z,6720
2023-03-08T07:48:09.622Z,6676
2023-03-08T07:49:09.602Z,6716
2023-03-08T07:50:09.344Z,6848
2023-03-08T07:51:09.602Z,6968
2023-03-08T07:52:09.595Z,6976
2023-03-08T07:53:09.073Z,6916
2023-03-08T07:54:09.253Z,6820
2023-03-08T07:55:09.565Z,6472
2023-03-08T07:56:08.962Z,5928
2023-03-08T07:57:09.235Z,5636
2023-03-08T07:58:09.618Z,5644
2023-03-08T07:59:09.403Z,5736
2023-03-08T08:00:09.417Z,5396
2023-03-08T08:01:09.442Z,5040
2023-03-08T08:02:09.416Z,5052
2023-03-08T08:03:09.599Z,5216
2023-03-08T08:04:10.135Z,5380
2023-03-08T08:05:09.553Z,5480
2023-03-08T08:06:09.641Z,5564
2023-03-08T08:07:11.465Z,5572
2023-03-08T08:08:09.584Z,5740
2023-03-08T08:09:09.039Z,6092
2023-03-08T08:10:09.019Z,6440
2023-03-08T08:11:09.521Z,6548
2023-03-08T08:12:09.510Z,6580
2023-03-08T08:13:09.486Z,6808
2023-03-08T08:14:09.622Z,7116
2023-03-08T08:15:08.938Z,7420
2023-03-08T08:16:09.224Z,7608
2023-03-08T08:17:09.191Z,7648
2023-03-08T08:18:08.901Z,7704
2023-03-08T08:19:09.121Z,7812
2023-03-08T08:20:09.364Z,7896
2023-03-08T08:21:09.091Z,7904
2023-03-08T08:22:09.078Z,7880
2023-03-08T08:23:08.805Z,7848
2023-03-08T08:24:09.034Z,7736
2023-03-08T08:25:09.266Z,7692
2023-03-08T08:26:09.246Z,7752
2023-03-08T08:27:09.010Z,7852
2023-03-08T08:28:09.211Z,7996
2023-03-08T08:29:09.216Z,8204
2023-03-08T08:30:09.291Z,8208
2023-03-08T08:31:09.101Z,8072
2023-03-08T08:32:08.795Z,7912
2023-03-08T08:33:08.707Z,7704
2023-03-08T08:34:08.876Z,7476
2023-03-08T08:35:09.101Z,7260
2023-03-08T08:36:09.468Z,6992
2023-03-08T08:37:08.797Z,6672
2023-03-08T08:38:08.776Z,6488
2023-03-08T08:39:08.904Z,6472
2023-03-08T08:40:09.023Z,6492
2023-03-08T08:41:08.486Z,6568
2023-03-08T08:42:08.718Z,6616
2023-03-08T08:43:08.951Z,6568
2023-03-08T08:44:08.996Z,6680
2023-03-08T08:45:08.931Z,6764
2023-03-08T08:46:09.421Z,6768
2023-03-08T08:47:08.884Z,6788
2023-03-08T08:48:08.922Z,6772
2023-03-08T08:49:08.618Z,6772
2023-03-08T08:50:08.841Z,6688
2023-03-08T08:51:08.559Z,6668
2023-03-08T08:52:08.528Z,6584
2023-03-08T08:53:08.957Z,6484
2023-03-08T08:54:09.002Z,6360
2023-03-08T08:55:08.224Z,6232
2023-03-08T08:56:25.979Z,6152
2023-03-08T08:57:08.699Z,6152
2023-03-08T08:58:08.439Z,6204
2023-03-08T08:59:08.671Z,6260
2023-03-08T09:00:08.387Z,6272
2023-03-08T09:01:10.051Z,6212
2023-03-08T09:02:09.190Z,6072
2023-03-08T09:03:08.596Z,5952
2023-03-08T09:04:08.887Z,5904
2023-03-08T09:05:08.695Z,5900
2023-03-08T09:06:08.388Z,5928
2023-03-08T09:07:08.025Z,5988
2023-03-08T09:08:08.156Z,6052
2023-03-08T09:09:08.506Z,6020
2023-03-08T09:10:07.734Z,5952
2023-03-08T09:11:08.215Z,5840
2023-03-08T09:12:08.177Z,5784
2023-03-08T09:13:08.442Z,5768
2023-03-08T09:14:07.647Z,5820
2023-03-08T09:15:08.175Z,5940
2023-03-08T09:16:08.001Z,6072
2023-03-08T09:17:08.447Z,6144
2023-03-08T09:18:08.575Z,6260
2023-03-08T09:19:08.362Z,6348
2023-03-08T09:20:08.338Z,6416
2023-03-08T09:21:08.031Z,6436
2023-03-08T09:22:07.795Z,6320
2023-03-08T09:23:08.208Z,6076
2023-03-08T09:24:07.983Z,5796
2023-03-08T09:25:08.230Z,5604
2023-03-08T09:26:09.553Z,5544
2023-03-08T09:27:07.923Z,5600
2023-03-08T09:28:08.169Z,5652
2023-03-08T09:29:08.245Z,5676
2023-03-08T09:30:07.886Z,5668
2023-03-08T09:31:07.845Z,5652
2023-03-08T09:32:08.406Z,5724
2023-03-08T09:33:07.819Z,5856
2023-03-08T09:34:08.204Z,6016
2023-03-08T09:35:08.044Z,6152
2023-03-08T09:36:08.072Z,6248
2023-03-08T09:37:07.752Z,6344
2023-03-08T09:38:07.505Z,6392
2023-03-08T09:39:07.704Z,6452
2023-03-08T09:40:07.968Z,6548
2023-03-08T09:41:07.526Z,6628
2023-03-08T09:42:07.671Z,6644
2023-03-08T09:43:07.914Z,6664
2023-03-08T09:44:07.361Z,6744
2023-03-08T09:45:09.834Z,6772
2023-03-08T09:46:08.046Z,6816
2023-03-08T09:47:07.834Z,6956
2023-03-08T09:48:08.028Z,7144
2023-03-08T09:49:07.290Z,7348
2023-03-08T09:50:07.988Z,7560
2023-03-08T09:51:07.521Z,7664
2023-03-08T09:52:07.743Z,7492
2023-03-08T09:53:07.468Z,7108
2023-03-08T09:54:07.454Z,6704
2023-03-08T09:55:07.716Z,6452
2023-03-08T09:56:07.469Z,6420
2023-03-08T09:57:07.992Z,6540
2023-03-08T09:58:07.371Z,6768
2023-03-08T09:59:07.366Z,6984
2023-03-08T10:00:07.335Z,7004
2023-03-08T10:01:07.863Z,6892
2023-03-08T10:02:07.051Z,6920
2023-03-08T10:03:07.657Z,6872
2023-03-08T10:04:07.834Z,6732
2023-03-08T10:05:20.060Z,6736
2023-03-08T10:06:07.512Z,6812
2023-03-08T10:07:07.478Z,6932
2023-03-08T10:08:07.222Z,7052
2023-03-08T10:09:07.432Z,7152
2023-03-08T10:10:07.419Z,7340
2023-03-08T10:11:07.223Z,7624
2023-03-08T10:12:13.155Z,7832
2023-03-08T10:13:06.883Z,7872
2023-03-08T10:14:07.079Z,7800
2023-03-08T10:15:06.826Z,7600
2023-03-08T10:16:06.824Z,7500
2023-03-08T10:17:07.746Z,7488
2023-03-08T10:18:07.314Z,7620
2023-03-08T10:19:07.034Z,7640
2023-03-08T10:20:06.846Z,7568
2023-03-08T10:21:07.311Z,7416
2023-03-08T10:22:07.013Z,7232
2023-03-08T10:23:06.953Z,7076
2023-03-08T10:24:07.298Z,7004
2023-03-08T10:25:06.905Z,7036
2023-03-08T10:26:07.130Z,7164
2023-03-08T10:27:09.570Z,7284
2023-03-08T10:28:07.116Z,7404
2023-03-08T10:29:06.585Z,7504
2023-03-08T10:30:06.824Z,7556
2023-03-08T10:31:06.924Z,7584
2023-03-08T10:32:07.139Z,7588
2023-03-08T10:33:06.251Z,7536
2023-03-08T10:34:06.532Z,7396
2023-03-08T10:35:06.728Z,7172
2023-03-08T10:36:07.121Z,6960
2023-03-08T10:37:07.034Z,6780
2023-03-08T10:38:06.715Z,6576
2023-03-08T10:39:09.769Z,6360
2023-03-08T10:40:06.785Z,6180
2023-03-08T10:41:06.622Z,6052
2023-03-08T10:42:06.930Z,5992
2023-03-08T10:43:06.634Z,5968
2023-03-08T10:44:06.612Z,6028
2023-03-08T10:45:06.814Z,6152
2023-03-08T10:46:06.875Z,6296
2023-03-08T10:47:06.576Z,6436
2023-03-08T10:48:06.823Z,6528
2023-03-08T10:49:06.746Z,6472
2023-03-08T10:50:06.712Z,6332
2023-03-08T10:51:06.750Z,6244
2023-03-08T10:52:06.704Z,6116
2023-03-08T10:53:06.756Z,5892
2023-03-08T10:54:06.686Z,5576
2023-03-08T10:55:06.455Z,5416
2023-03-08T10:56:06.644Z,5416
2023-03-08T10:57:06.371Z,5636
2023-03-08T10:58:06.627Z,5928
2023-03-08T10:59:06.300Z,6176
2023-03-08T11:00:06.046Z,6248
2023-03-08T11:01:06.273Z,6232
2023-03-08T11:02:06.250Z,6244
2023-03-08T11:03:06.505Z,6264
2023-03-08T11:04:06.535Z,6340
2023-03-08T11:05:06.835Z,6308
2023-03-08T11:06:06.460Z,6348
2023-03-08T11:07:06.166Z,6428
2023-03-08T11:08:06.204Z,6540
2023-03-08T11:09:06.397Z,6804
2023-03-08T11:10:05.899Z,7036
2023-03-08T11:11:06.044Z,7268
2023-03-08T11:12:06.060Z,7596
2023-03-08T11:13:06.322Z,8012
2023-03-08T11:14:06.291Z,8428
2023-03-08T11:15:06.370Z,8472
2023-03-08T11:16:06.362Z,8352
2023-03-08T11:17:06.027Z,8184
2023-03-08T11:18:05.972Z,8040
2023-03-08T11:19:06.543Z,7924
2023-03-08T11:20:05.968Z,7968
2023-03-08T11:21:05.947Z,8024
2023-03-08T11:22:06.076Z,8204
2023-03-08T11:23:05.643Z,8452
2023-03-08T11:24:06.070Z,8604
2023-03-08T11:25:06.198Z,8644
2023-03-08T11:26:06.120Z,8556
2023-03-08T11:27:06.192Z,8552
2023-03-08T11:28:05.922Z,8720
2023-03-08T11:29:06.500Z,8912
2023-03-08T11:30:05.519Z,9096
2023-03-08T11:31:05.976Z,9140
2023-03-08T11:32:05.762Z,9168
2023-03-08T11:33:06.825Z,8968
2023-03-08T11:34:06.001Z,8756
2023-03-08T11:35:05.716Z,8484
2023-03-08T11:36:05.686Z,8144
2023-03-08T11:37:05.652Z,7792
2023-03-08T11:38:05.928Z,7600
2023-03-08T11:39:05.611Z,7448
2023-03-08T11:40:05.097Z,7344
2023-03-08T11:41:05.948Z,7244
2023-03-08T11:42:05.598Z,7016
2023-03-08T11:43:05.309Z,6844
2023-03-08T11:44:05.646Z,6812
2023-03-08T11:45:05.775Z,7076
2023-03-08T11:46:05.780Z,7308
2023-03-08T11:47:05.689Z,7936
2023-03-08T11:48:05.510Z,8336
2023-03-08T11:49:06.048Z,8468
2023-03-08T11:50:05.347Z,8128
2023-03-08T11:51:05.184Z,7820
2023-03-08T11:52:05.452Z,7464
2023-03-08T11:53:05.728Z,7488
2023-03-08T11:54:05.652Z,7620
2023-03-08T11:55:05.539Z,8300
2023-03-08T11:56:05.595Z,8612
2023-03-08T11:57:05.762Z,9044
2023-03-08T11:58:05.386Z,9284
2023-03-08T11:59:05.541Z,9588
2023-03-08T12:00:05.292Z,10040
2023-03-08T12:01:05.286Z,10608
2023-03-08T12:02:05.236Z,11160
2023-03-08T12:03:05.210Z,10896
2023-03-08T12:04:08.537Z,10776
2023-03-08T12:05:05.563Z,10840
2023-03-08T12:06:06.476Z,11028
2023-03-08T12:07:05.618Z,11200
2023-03-08T12:08:05.301Z,11244
2023-03-08T12:09:05.850Z,11240
2023-03-08T12:10:05.358Z,11180
2023-03-08T12:11:05.327Z,11320
2023-03-08T12:12:08.243Z,11604
2023-03-08T12:13:05.430Z,12032
2023-03-08T12:14:05.359Z,12556
2023-03-08T12:15:05.565Z,13204
2023-03-08T12:16:05.301Z,13476
2023-03-08T12:17:05.712Z,13472
2023-03-08T12:18:04.971Z,12624
2023-03-08T12:19:04.998Z,12308
2023-03-08T12:20:05.263Z,11200
2023-03-08T12:21:04.910Z,10796
2023-03-08T12:22:04.903Z,10268
2023-03-08T12:23:04.936Z,10192
2023-03-08T12:24:08.625Z,10052
2023-03-08T12:25:04.668Z,9668
2023-03-08T12:26:05.093Z,9568
2023-03-08T12:27:05.211Z,9116
2023-03-08T12:28:04.668Z,8732
2023-03-08T12:29:04.839Z,8416
2023-03-08T12:30:04.863Z,8436
2023-03-08T12:31:06.616Z,8676
2023-03-08T12:32:05.118Z,8660
2023-03-08T12:33:05.728Z,9052
2023-03-08T12:34:04.745Z,9156
2023-03-08T12:35:04.716Z,9132
2023-03-08T12:36:05.392Z,9448
2023-03-08T12:37:04.901Z,10240
2023-03-08T12:38:04.865Z,10548
2023-03-08T12:39:05.106Z,10280
2023-03-08T12:40:04.355Z,9632
2023-03-08T12:41:04.647Z,8924
2023-03-08T12:42:04.904Z,8660
2023-03-08T12:43:04.573Z,8892
2023-03-08T12:44:04.357Z,8760
2023-03-08T12:45:04.609Z,8480
2023-03-08T12:46:05.252Z,8468
2023-03-08T12:47:10.116Z,8812
2023-03-08T12:48:04.971Z,9136
2023-03-08T12:49:04.955Z,9148
2023-03-08T12:50:04.640Z,9172
2023-03-08T12:51:07.442Z,9088
2023-03-08T12:52:04.746Z,8844
2023-03-08T12:53:04.711Z,8832
2023-03-08T12:54:04.657Z,8828
2023-03-08T12:55:04.393Z,8720
2023-03-08T12:56:04.373Z,8288
2023-03-08T12:57:04.664Z,7844
2023-03-08T12:58:04.568Z,7592
2023-03-08T12:59:04.567Z,7520
2023-03-08T13:00:04.347Z,7680
2023-03-08T13:01:04.772Z,7932
2023-03-08T13:02:04.530Z,7984
2023-03-08T13:03:04.748Z,7648
2023-03-08T13:04:04.419Z,7580
2023-03-08T13:05:04.386Z,7712
2023-03-08T13:06:04.209Z,7692
2023-03-08T13:07:04.179Z,7700
2023-03-08T13:08:03.927Z,7764
2023-03-08T13:09:04.147Z,7808
2023-03-08T13:10:04.436Z,7748
2023-03-08T13:11:04.131Z,7648
2023-03-08T13:12:04.101Z,7528
2023-03-08T13:13:04.292Z,7540
2023-03-08T13:14:04.079Z,7512
2023-03-08T13:15:04.348Z,7224
2023-03-08T13:16:04.294Z,6948
2023-03-08T13:17:04.772Z,6696
2023-03-08T13:18:04.284Z,6644
2023-03-08T13:19:04.394Z,7592
2023-03-08T13:20:04.130Z,8160
2023-03-08T13:21:04.182Z,8364
2023-03-08T13:22:03.680Z,8696
2023-03-08T13:23:03.895Z,8740
2023-03-08T13:24:03.873Z,8292
2023-03-08T13:25:04.386Z,8068
2023-03-08T13:26:04.306Z,8288
2023-03-08T13:27:03.712Z,8492
2023-03-08T13:28:03.853Z,8304
2023-03-08T13:29:04.334Z,8240
2023-03-08T13:30:03.791Z,9068
2023-03-08T13:31:03.816Z,10020
2023-03-08T13:32:03.826Z,9540
2023-03-08T13:33:04.141Z,8564
2023-03-08T13:34:04.018Z,8228
2023-03-08T13:35:03.700Z,7872
2023-03-08T13:36:04.096Z,8284
2023-03-08T13:37:03.925Z,8716
2023-03-08T13:38:03.706Z,8024
2023-03-08T13:39:03.374Z,6884
2023-03-08T13:40:03.618Z,6640
2023-03-08T13:41:03.906Z,6956
2023-03-08T13:42:03.864Z,6760
2023-03-08T13:43:03.323Z,6728
2023-03-08T13:44:03.549Z,7724
2023-03-08T13:45:03.278Z,8428
2023-03-08T13:46:03.663Z,8120
2023-03-08T13:47:03.869Z,7900
2023-03-08T13:48:03.508Z,7684
2023-03-08T13:49:03.821Z,7740
2023-03-08T13:50:03.518Z,8488
2023-03-08T13:51:03.717Z,8440
2023-03-08T13:52:03.432Z,7424
2023-03-08T13:53:03.668Z,7236
2023-03-08T13:54:03.665Z,7444
2023-03-08T13:55:03.781Z,7744
2023-03-08T13:56:03.385Z,8088
2023-03-08T13:57:03.690Z,7752
2023-03-08T13:58:03.507Z,7596
2023-03-08T13:59:03.507Z,7272
2023-03-08T14:00:03.833Z,5380
2023-03-08T14:01:06.815Z,3392
2023-03-08T14:02:03.487Z,2704
2023-03-08T14:03:03.521Z,2716
2023-03-08T14:04:03.427Z,3208
2023-03-08T14:05:03.905Z,3908
2023-03-08T14:06:03.651Z,5276
2023-03-08T14:07:03.177Z,6432
2023-03-08T14:08:03.189Z,7072
2023-03-08T14:09:02.895Z,7400
2023-03-08T14:10:03.434Z,7888
2023-03-08T14:11:03.648Z,8788
2023-03-08T14:12:03.580Z,9740
2023-03-08T14:13:03.338Z,10220
2023-03-08T14:14:03.136Z,9304
2023-03-08T14:15:03.585Z,7596
2023-03-08T14:16:03.469Z,6660
2023-03-08T14:17:03.304Z,6432
2023-03-08T14:18:03.295Z,6920
2023-03-08T14:19:03.268Z,7276
2023-03-08T14:20:03.780Z,7284
2023-03-08T14:21:03.623Z,7240
2023-03-08T14:22:03.037Z,7628
2023-03-08T14:23:03.414Z,8524
2023-03-08T14:24:02.984Z,9096
2023-03-08T14:25:03.416Z,8568
2023-03-08T14:26:02.835Z,8256
2023-03-08T14:27:03.436Z,8344
2023-03-08T14:28:02.805Z,8688
2023-03-08T14:29:02.858Z,9592
2023-03-08T14:30:03.307Z,11044
2023-03-08T14:31:03.275Z,10388
2023-03-08T14:32:03.651Z,8900
2023-03-08T14:33:03.042Z,8576
2023-03-08T14:34:02.471Z,8736
2023-03-08T14:35:02.439Z,9444
2023-03-08T14:36:03.105Z,8752
2023-03-08T14:37:03.060Z,7840
2023-03-08T14:38:02.927Z,8160
2023-03-08T14:39:02.660Z,8252
2023-03-08T14:40:02.603Z,8940
2023-03-08T14:41:02.330Z,8740
2023-03-08T14:42:02.622Z,8324
2023-03-08T14:43:02.841Z,7244
2023-03-08T14:44:02.566Z,6836
2023-03-08T14:45:02.782Z,6500
2023-03-08T14:46:02.647Z,6336
2023-03-08T14:47:02.806Z,6528
2023-03-08T14:48:02.487Z,6948
2023-03-08T14:49:03.066Z,7208
2023-03-08T14:50:02.693Z,6736
2023-03-08T14:51:02.468Z,6164
2023-03-08T14:52:02.711Z,5728
2023-03-08T14:53:02.726Z,5452
2023-03-08T14:54:02.697Z,5096
2023-03-08T14:55:03.259Z,4736
2023-03-08T14:56:02.134Z,4236
2023-03-08T14:57:02.089Z,3932
2023-03-08T14:58:04.951Z,3772
2023-03-08T14:59:02.550Z,3504
2023-03-08T15:00:02.320Z,3056
2023-03-08T15:01:02.265Z,3220
2023-03-08T15:02:02.468Z,3256